createdAt,value
2023-01-28T00:02:32.011Z,18.28
2023-01-28T00:07:53.730Z,18.27
2023-01-28T00:13:15.469Z,18.24
2023-01-28T00:18:37.827Z,18.24
2023-01-28T00:23:59.875Z,18.19
2023-01-28T00:29:22.002Z,18.14
2023-01-28T00:34:43.743Z,18.11
2023-01-28T00:40:05.885Z,18.09
2023-01-28T00:45:28.053Z,18.05
2023-01-28T00:50:49.831Z,18.02
2023-01-28T00:56:13.990Z,17.98
2023-01-28T01:01:35.938Z,17.94
2023-01-28T01:06:57.681Z,17.91
2023-01-28T01:12:19.727Z,17.89
2023-01-28T01:17:43.202Z,17.85
2023-01-28T01:23:04.894Z,17.81
2023-01-28T01:28:26.674Z,17.79
2023-01-28T01:33:50.135Z,17.77
2023-01-28T01:39:15.224Z,17.75
2023-01-28T01:44:55.384Z,17.74
2023-01-28T01:50:17.015Z,17.70
2023-01-28T01:55:41.404Z,17.67
2023-01-28T02:01:03.504Z,17.65
2023-01-28T02:06:26.051Z,17.61
2023-01-28T02:11:48.176Z,17.59
2023-01-28T02:17:10.132Z,17.58
2023-01-28T02:23:03.852Z,17.55
2023-01-28T02:28:57.908Z,17.55
2023-01-28T02:34:40.254Z,17.53
2023-01-28T02:40:09.066Z,17.49
2023-01-28T02:45:52.655Z,17.48
2023-01-28T02:51:42.446Z,17.48
2023-01-28T02:57:24.048Z,17.43
2023-01-28T03:03:16.579Z,17.42
2023-01-28T03:09:03.174Z,17.39
2023-01-28T03:14:44.640Z,17.36
2023-01-28T03:20:25.204Z,17.33
2023-01-28T03:26:08.233Z,17.30
2023-01-28T03:31:49.074Z,17.28
2023-01-28T03:37:11.276Z,17.25
2023-01-28T03:42:33.491Z,17.23
2023-01-28T03:47:55.241Z,17.21
2023-01-28T03:53:17.862Z,17.20
2023-01-28T03:59:08.930Z,17.20
2023-01-28T04:04:32.796Z,17.17
2023-01-28T04:09:54.485Z,17.16
2023-01-28T04:15:17.521Z,17.15
2023-01-28T04:20:40.476Z,17.13
2023-01-28T04:26:04.189Z,17.09
2023-01-28T04:31:26.241Z,17.07
2023-01-28T04:36:48.041Z,17.05
2023-01-28T04:42:10.110Z,17.04
2023-01-28T04:47:31.930Z,17.01
2023-01-28T04:52:53.660Z,16.99
2023-01-28T04:58:15.459Z,16.97
2023-01-28T05:03:37.202Z,16.95
2023-01-28T05:08:58.904Z,16.93
2023-01-28T05:14:20.608Z,16.92
2023-01-28T05:19:42.349Z,16.90
2023-01-28T05:25:04.919Z,16.89
2023-01-28T05:30:26.713Z,16.88
2023-01-28T05:35:49.771Z,16.87
2023-01-28T05:41:11.484Z,16.86
2023-01-28T05:46:33.223Z,16.87
2023-01-28T05:51:54.956Z,16.85
2023-01-28T05:57:16.826Z,16.82
2023-01-28T06:02:39.491Z,16.81
2023-01-28T06:08:01.236Z,16.80
2023-01-28T06:13:22.912Z,16.77
2023-01-28T06:18:45.124Z,16.77
2023-01-28T06:24:06.958Z,16.76
2023-01-28T06:29:28.699Z,16.74
2023-01-28T06:34:50.434Z,16.73
2023-01-28T06:40:12.578Z,16.73
2023-01-28T06:45:34.491Z,16.80
2023-01-28T06:50:56.760Z,17.11
2023-01-28T06:56:18.519Z,17.64
2023-01-28T07:01:40.340Z,18.19
2023-01-28T07:07:02.078Z,18.70
2023-01-28T07:12:24.059Z,19.14
2023-01-28T07:17:46.063Z,19.46
2023-01-28T07:23:07.937Z,19.64
2023-01-28T07:28:30.093Z,19.68
2023-01-28T07:33:51.868Z,19.61
2023-01-28T07:39:13.746Z,19.44
2023-01-28T07:44:37.055Z,19.22
2023-01-28T07:49:58.789Z,18.98
2023-01-28T07:55:20.655Z,18.80
2023-01-28T08:00:42.350Z,18.67
2023-01-28T08:06:04.400Z,18.58
2023-01-28T08:11:26.114Z,18.64
2023-01-28T08:16:48.371Z,18.71
2023-01-28T08:22:10.216Z,18.82
2023-01-28T08:27:32.665Z,18.92
2023-01-28T08:33:01.145Z,19.07
2023-01-28T08:38:23.274Z,19.24
2023-01-28T08:43:44.933Z,19.44
2023-01-28T08:49:06.616Z,19.63
2023-01-28T08:54:28.499Z,19.85
2023-01-28T08:59:50.210Z,19.99
2023-01-28T09:05:12.143Z,20.12
2023-01-28T09:10:34.445Z,20.24
2023-01-28T09:15:56.484Z,20.38
2023-01-28T09:21:18.378Z,20.43
2023-01-28T09:26:40.155Z,20.41
2023-01-28T09:32:02.398Z,20.35
2023-01-28T09:37:24.206Z,20.25
2023-01-28T09:42:59.236Z,20.16
2023-01-28T09:48:24.635Z,20.04
2023-01-28T09:53:50.018Z,19.88
2023-01-28T09:59:14.624Z,19.71
2023-01-28T10:04:54.386Z,19.60
2023-01-28T10:10:25.345Z,19.49
2023-01-28T10:16:14.733Z,19.43
2023-01-28T10:21:39.250Z,19.35
2023-01-28T10:27:01.178Z,19.31
2023-01-28T10:32:27.040Z,19.26
2023-01-28T10:37:49.453Z,19.20
2023-01-28T10:43:11.346Z,19.17
2023-01-28T10:49:14.840Z,19.14
2023-01-28T10:54:36.577Z,19.08
2023-01-28T10:59:58.324Z,19.06
2023-01-28T11:05:31.018Z,19.05
2023-01-28T11:10:54.220Z,19.02
2023-01-28T11:16:19.847Z,18.98
2023-01-28T11:21:48.119Z,18.94
2023-01-28T11:27:16.876Z,18.93
2023-01-28T11:32:38.623Z,18.88
2023-01-28T11:38:01.206Z,18.83
2023-01-28T11:43:25.527Z,18.76
2023-01-28T11:49:24.803Z,18.71
2023-01-28T11:55:05.061Z,18.58
2023-01-28T12:00:45.012Z,18.51
2023-01-28T12:06:37.451Z,18.46
2023-01-28T12:12:17.236Z,18.40
2023-01-28T12:18:09.676Z,18.35
2023-01-28T12:23:48.790Z,18.27
2023-01-28T12:30:03.562Z,18.22
2023-01-28T12:35:35.896Z,18.30
2023-01-28T12:41:01.432Z,18.60
2023-01-28T12:46:29.258Z,19.05
2023-01-28T12:52:24.875Z,19.46
2023-01-28T12:57:48.949Z,19.86
2023-01-28T13:03:13.656Z,20.18
2023-01-28T13:08:35.594Z,20.42
2023-01-28T13:13:57.469Z,20.58
2023-01-28T13:19:19.128Z,20.64
2023-01-28T13:24:40.868Z,20.58
2023-01-28T13:30:22.187Z,20.44
2023-01-28T13:35:55.562Z,20.27
2023-01-28T13:41:18.418Z,20.07
2023-01-28T13:46:40.158Z,19.87
2023-01-28T13:52:10.735Z,19.71
2023-01-28T13:57:47.821Z,19.53
2023-01-28T14:03:43.423Z,19.40
2023-01-28T14:09:42.147Z,19.27
2023-01-28T14:15:21.847Z,19.15
2023-01-28T14:20:46.903Z,19.04
2023-01-28T14:26:45.534Z,18.97
2023-01-28T14:32:15.672Z,18.90
2023-01-28T14:37:38.431Z,18.86
2023-01-28T14:43:01.690Z,18.83
2023-01-28T14:48:41.279Z,18.82
2023-01-28T14:54:15.025Z,18.77
2023-01-28T14:59:42.029Z,18.74
2023-01-28T15:05:14.767Z,18.71
2023-01-28T15:10:38.814Z,18.68
2023-01-28T15:16:01.095Z,18.64
2023-01-28T15:21:27.690Z,18.62
2023-01-28T15:26:49.654Z,18.57
2023-01-28T15:32:29.437Z,18.67
2023-01-28T15:37:51.526Z,18.80
2023-01-28T15:43:19.824Z,18.94
2023-01-28T15:48:46.021Z,19.01
2023-01-28T15:54:10.131Z,19.06
2023-01-28T15:59:31.869Z,19.15
2023-01-28T16:05:01.308Z,19.29
2023-01-28T16:10:28.878Z,19.37
2023-01-28T16:15:54.262Z,19.40
2023-01-28T16:21:26.597Z,19.35
2023-01-28T16:27:01.225Z,19.29
2023-01-28T16:32:34.338Z,19.23
2023-01-28T16:37:56.380Z,19.24
2023-01-28T16:43:18.202Z,19.41
2023-01-28T16:48:40.074Z,19.68
2023-01-28T16:54:03.220Z,20.05
2023-01-28T16:59:25.248Z,20.32
2023-01-28T17:04:47.016Z,20.42
2023-01-28T17:10:10.052Z,20.42
2023-01-28T17:15:31.776Z,20.33
2023-01-28T17:20:53.587Z,20.20
2023-01-28T17:26:16.636Z,20.06
2023-01-28T17:31:38.550Z,19.90
2023-01-28T17:37:00.289Z,19.75
2023-01-28T17:42:22.018Z,19.57
2023-01-28T17:47:43.693Z,19.43
2023-01-28T17:53:05.395Z,19.27
2023-01-28T17:58:27.107Z,19.23
2023-01-28T18:03:48.914Z,19.34
2023-01-28T18:09:10.631Z,19.73
2023-01-28T18:14:32.630Z,20.18
2023-01-28T18:19:54.503Z,20.58
2023-01-28T18:25:18.951Z,20.87
2023-01-28T18:30:40.956Z,21.00
2023-01-28T18:36:05.738Z,20.97
2023-01-28T18:41:27.484Z,20.85
2023-01-28T18:46:49.733Z,20.72
2023-01-28T18:52:11.437Z,20.55
2023-01-28T18:57:33.094Z,20.39
2023-01-28T19:02:54.767Z,20.20
2023-01-28T19:08:16.872Z,20.11
2023-01-28T19:13:38.559Z,20.02
2023-01-28T19:19:01.284Z,19.96
2023-01-28T19:24:23.029Z,20.01
2023-01-28T19:29:45.275Z,20.22
2023-01-28T19:35:07.503Z,20.62
2023-01-28T19:40:29.685Z,20.83
2023-01-28T19:45:58.250Z,20.84
2023-01-28T19:51:20.428Z,20.74
2023-01-28T19:56:42.091Z,20.65
2023-01-28T20:02:03.805Z,20.53
2023-01-28T20:07:25.541Z,20.39
2023-01-28T20:12:47.257Z,20.24
2023-01-28T20:18:08.961Z,20.15
2023-01-28T20:23:30.847Z,20.15
2023-01-28T20:28:52.604Z,20.20
2023-01-28T20:34:19.689Z,20.25
2023-01-28T20:39:41.515Z,20.26
2023-01-28T20:45:03.637Z,20.38
2023-01-28T20:50:25.446Z,20.74
2023-01-28T20:55:56.807Z,21.18
2023-01-28T21:01:20.462Z,21.56
2023-01-28T21:06:42.217Z,21.87
2023-01-28T21:12:04.243Z,22.00
2023-01-28T21:17:25.930Z,22.03
2023-01-28T21:22:54.423Z,21.93
2023-01-28T21:28:16.248Z,21.84
2023-01-28T21:33:38.409Z,21.77
2023-01-28T21:39:01.608Z,21.64
2023-01-28T21:44:23.344Z,21.46
2023-01-28T21:49:45.083Z,21.25
2023-01-28T21:55:07.181Z,21.03
2023-01-28T22:00:28.863Z,20.85
2023-01-28T22:05:57.106Z,20.69
2023-01-28T22:11:20.090Z,20.51
2023-01-28T22:16:42.367Z,20.35
2023-01-28T22:22:04.718Z,20.21
2023-01-28T22:27:28.715Z,20.08
2023-01-28T22:32:50.656Z,19.96
2023-01-28T22:38:12.365Z,19.84
2023-01-28T22:43:35.554Z,19.74
2023-01-28T22:48:57.620Z,19.63
2023-01-28T22:54:19.288Z,19.54
2023-01-28T22:59:43.715Z,19.45
2023-01-28T23:05:08.081Z,19.35
2023-01-28T23:10:29.756Z,19.28
2023-01-28T23:16:10.719Z,19.20
2023-01-28T23:21:51.233Z,19.14
2023-01-28T23:27:12.937Z,19.07
2023-01-28T23:32:34.717Z,19.00
2023-01-28T23:37:56.758Z,18.91
2023-01-28T23:43:18.443Z,18.87
2023-01-28T23:48:40.455Z,18.82
2023-01-28T23:54:02.182Z,18.75
2023-01-28T23:59:24.925Z,18.71
